Terminal Aerodrome Forecast
Issued by NWS

Home | Current Version | Previous Version | Text Only | Print | Product List | Glossary On
Versions: 1 2 3 4 5 6 7 8 9 10 11 12 13
000
FTUS41 KPHI 270500
TAFPNE
TAF
KPNE 270539Z 2706/2806 VRB03KT P6SM SKC
     FM271300 23006KT P6SM SCT250
     FM280200 26006KT P6SM BKN050
     FM280500 31006KT P6SM BKN050=

USA.gov is the U.S. government's official web portal to all federal, state and local government web resources and services.